sensor_id;sensor_type;location;lat;lon;timestamp;pressure;altitude;pressure_sealevel;temperature;humidity
61384;BME280;63511;49.346;8.798;2022-12-07T00:01:47;100375.78;;;6.74;76.00
61384;BME280;63511;49.346;8.798;2022-12-07T00:04:15;100377.16;;;6.71;76.41
61384;BME280;63511;49.346;8.798;2022-12-07T00:06:47;100375.75;;;6.54;76.85
61384;BME280;63511;49.346;8.798;2022-12-07T00:09:16;100374.28;;;6.56;75.66
61384;BME280;63511;49.346;8.798;2022-12-07T00:11:42;100366.25;;;6.60;75.80
61384;BME280;63511;49.346;8.798;2022-12-07T00:14:11;100371.50;;;6.63;75.62
61384;BME280;63511;49.346;8.798;2022-12-07T00:16:41;100371.25;;;6.60;75.69
61384;BME280;63511;49.346;8.798;2022-12-07T00:19:07;100365.09;;;6.47;75.86
61384;BME280;63511;49.346;8.798;2022-12-07T00:21:34;100361.06;;;6.38;75.79
61384;BME280;63511;49.346;8.798;2022-12-07T00:24:01;100353.53;;;6.38;76.43
61384;BME280;63511;49.346;8.798;2022-12-07T00:26:33;100358.66;;;6.30;76.54
61384;BME280;63511;49.346;8.798;2022-12-07T00:29:02;100360.25;;;6.09;77.64
61384;BME280;63511;49.346;8.798;2022-12-07T00:31:31;100351.75;;;6.27;78.00
61384;BME280;63511;49.346;8.798;2022-12-07T00:34:00;100349.69;;;6.42;77.31
61384;BME280;63511;49.346;8.798;2022-12-07T00:36:26;100349.31;;;6.48;77.81
61384;BME280;63511;49.346;8.798;2022-12-07T00:38:51;100346.81;;;5.98;78.45
61384;BME280;63511;49.346;8.798;2022-12-07T00:41:22;100344.69;;;5.74;80.05
61384;BME280;63511;49.346;8.798;2022-12-07T00:43:49;100350.22;;;5.51;81.27
61384;BME280;63511;49.346;8.798;2022-12-07T00:46:15;100349.38;;;5.61;82.08
61384;BME280;63511;49.346;8.798;2022-12-07T00:48:41;100347.78;;;5.90;80.05
61384;BME280;63511;49.346;8.798;2022-12-07T00:51:07;100344.59;;;6.22;79.27
61384;BME280;63511;49.346;8.798;2022-12-07T00:53:35;100332.34;;;6.35;79.48
61384;BME280;63511;49.346;8.798;2022-12-07T00:56:09;100324.97;;;6.47;78.46
61384;BME280;63511;49.346;8.798;2022-12-07T00:58:35;100330.22;;;6.80;78.44
61384;BME280;63511;49.346;8.798;2022-12-07T01:01:01;100332.88;;;6.71;78.23
61384;BME280;63511;49.346;8.798;2022-12-07T01:03:29;100332.59;;;6.68;78.03
61384;BME280;63511;49.346;8.798;2022-12-07T01:05:55;100335.75;;;6.76;78.70
61384;BME280;63511;49.346;8.798;2022-12-07T01:08:22;100337.38;;;6.75;78.89
61384;BME280;63511;49.346;8.798;2022-12-07T01:10:48;100349.78;;;6.64;79.56
61384;BME280;63511;49.346;8.798;2022-12-07T01:13:14;100343.16;;;6.54;78.87
61384;BME280;63511;49.346;8.798;2022-12-07T01:15:41;100333.09;;;6.95;78.33
61384;BME280;63511;49.346;8.798;2022-12-07T01:18:07;100340.91;;;6.88;77.51
61384;BME280;63511;49.346;8.798;2022-12-07T01:20:32;100345.25;;;6.39;79.11
61384;BME280;63511;49.346;8.798;2022-12-07T01:22:57;100342.91;;;6.51;79.16
61384;BME280;63511;49.346;8.798;2022-12-07T01:25:23;100342.16;;;6.62;78.71
61384;BME280;63511;49.346;8.798;2022-12-07T01:27:48;100344.16;;;6.66;79.12
61384;BME280;63511;49.346;8.798;2022-12-07T01:30:14;100343.41;;;6.98;78.42
61384;BME280;63511;49.346;8.798;2022-12-07T01:32:41;100346.69;;;6.66;78.79
61384;BME280;63511;49.346;8.798;2022-12-07T01:35:07;100355.84;;;6.76;77.97
61384;BME280;63511;49.346;8.798;2022-12-07T01:37:36;100368.06;;;6.32;79.88
61384;BME280;63511;49.346;8.798;2022-12-07T01:40:04;100360.72;;;6.64;79.17
61384;BME280;63511;49.346;8.798;2022-12-07T01:42:30;100354.94;;;6.96;78.01
61384;BME280;63511;49.346;8.798;2022-12-07T01:47:47;100359.06;;;6.95;77.62
61384;BME280;63511;49.346;8.798;2022-12-07T01:50:14;100357.22;;;6.93;77.53
61384;BME280;63511;49.346;8.798;2022-12-07T01:52:41;100344.88;;;7.16;76.78
61384;BME280;63511;49.346;8.798;2022-12-07T01:55:10;100333.88;;;7.04;77.96
61384;BME280;63511;49.346;8.798;2022-12-07T01:57:41;100340.13;;;7.09;77.87
61384;BME280;63511;49.346;8.798;2022-12-07T02:00:10;100349.56;;;6.91;78.34
61384;BME280;63511;49.346;8.798;2022-12-07T02:03:16;100337.38;;;6.55;79.09
61384;BME280;63511;49.346;8.798;2022-12-07T02:05:34;100319.44;;;6.81;78.12
61384;BME280;63511;49.346;8.798;2022-12-07T02:08:01;100332.72;;;6.90;77.82
61384;BME280;63511;49.346;8.798;2022-12-07T02:10:29;100325.31;;;7.02;77.72
61384;BME280;63511;49.346;8.798;2022-12-07T02:12:59;100321.56;;;6.97;78.27
61384;BME280;63511;49.346;8.798;2022-12-07T02:21:20;100312.56;;;7.41;76.54
61384;BME280;63511;49.346;8.798;2022-12-07T02:31:28;100312.84;;;7.23;76.77
61384;BME280;63511;49.346;8.798;2022-12-07T02:34:11;100318.03;;;7.15;76.97
61384;BME280;63511;49.346;8.798;2022-12-07T02:36:43;100321.44;;;6.95;77.20
61384;BME280;63511;49.346;8.798;2022-12-07T02:39:36;100315.06;;;6.78;76.87
61384;BME280;63511;49.346;8.798;2022-12-07T02:42:12;100317.28;;;7.06;76.80
61384;BME280;63511;49.346;8.798;2022-12-07T02:44:39;100316.69;;;6.88;77.48
61384;BME280;63511;49.346;8.798;2022-12-07T02:47:09;100309.88;;;6.97;77.79
61384;BME280;63511;49.346;8.798;2022-12-07T02:49:36;100302.19;;;7.06;76.56
61384;BME280;63511;49.346;8.798;2022-12-07T02:52:03;100305.22;;;7.12;77.17
61384;BME280;63511;49.346;8.798;2022-12-07T02:54:28;100302.38;;;6.87;76.97
61384;BME280;63511;49.346;8.798;2022-12-07T03:11:01;100299.31;;;5.90;80.62
61384;BME280;63511;49.346;8.798;2022-12-07T03:16:19;100319.38;;;6.00;80.83
61384;BME280;63511;49.346;8.798;2022-12-07T03:18:50;100315.69;;;6.56;79.38
61384;BME280;63511;49.346;8.798;2022-12-07T03:21:21;100319.44;;;6.71;77.96
61384;BME280;63511;49.346;8.798;2022-12-07T03:23:52;100313.53;;;6.80;78.19
61384;BME280;63511;49.346;8.798;2022-12-07T03:26:21;100310.28;;;6.92;78.13
61384;BME280;63511;49.346;8.798;2022-12-07T03:28:51;100315.13;;;7.00;77.50
61384;BME280;63511;49.346;8.798;2022-12-07T03:31:22;100309.13;;;7.08;77.43
61384;BME280;63511;49.346;8.798;2022-12-07T03:33:54;100301.94;;;7.13;77.16
61384;BME280;63511;49.346;8.798;2022-12-07T03:36:32;100303.97;;;7.07;76.91
61384;BME280;63511;49.346;8.798;2022-12-07T03:39:11;100300.06;;;7.10;77.73
61384;BME280;63511;49.346;8.798;2022-12-07T03:41:38;100299.72;;;6.96;77.96
61384;BME280;63511;49.346;8.798;2022-12-07T03:44:05;100298.44;;;7.01;78.59
61384;BME280;63511;49.346;8.798;2022-12-07T03:52:05;100289.53;;;7.14;77.54
61384;BME280;63511;49.346;8.798;2022-12-07T03:57:15;100287.53;;;7.00;77.73
61384;BME280;63511;49.346;8.798;2022-12-07T03:59:41;100287.00;;;7.14;77.62
61384;BME280;63511;49.346;8.798;2022-12-07T04:02:07;100286.38;;;7.17;77.96
61384;BME280;63511;49.346;8.798;2022-12-07T04:04:33;100283.66;;;7.04;77.96
61384;BME280;63511;49.346;8.798;2022-12-07T04:07:00;100283.34;;;7.11;77.61
61384;BME280;63511;49.346;8.798;2022-12-07T04:09:26;100282.88;;;7.15;77.73
61384;BME280;63511;49.346;8.798;2022-12-07T04:11:54;100284.84;;;7.29;78.08
61384;BME280;63511;49.346;8.798;2022-12-07T04:14:19;100286.69;;;7.32;77.18
61384;BME280;63511;49.346;8.798;2022-12-07T04:16:55;100303.22;;;7.08;78.23
61384;BME280;63511;49.346;8.798;2022-12-07T04:19:32;100287.88;;;7.05;78.12
61384;BME280;63511;49.346;8.798;2022-12-07T04:22:01;100294.56;;;7.14;77.84
61384;BME280;63511;49.346;8.798;2022-12-07T04:24:27;100290.13;;;7.22;77.54
61384;BME280;63511;49.346;8.798;2022-12-07T04:26:52;100283.34;;;7.21;77.60
61384;BME280;63511;49.346;8.798;2022-12-07T04:29:18;100277.78;;;7.35;77.14
61384;BME280;63511;49.346;8.798;2022-12-07T04:31:44;100274.88;;;7.41;77.01
61384;BME280;63511;49.346;8.798;2022-12-07T04:34:10;100265.41;;;7.48;76.65
61384;BME280;63511;49.346;8.798;2022-12-07T04:36:36;100269.34;;;7.45;76.71
61384;BME280;63511;49.346;8.798;2022-12-07T04:39:02;100275.41;;;7.26;77.15
61384;BME280;63511;49.346;8.798;2022-12-07T04:41:27;100272.25;;;7.39;77.44
61384;BME280;63511;49.346;8.798;2022-12-07T04:43:58;100270.28;;;7.25;77.47
61384;BME280;63511;49.346;8.798;2022-12-07T04:46:25;100267.53;;;7.12;77.39
61384;BME280;63511;49.346;8.798;2022-12-07T04:48:52;100274.47;;;7.14;78.00
61384;BME280;63511;49.346;8.798;2022-12-07T04:51:28;100273.38;;;6.91;78.07
61384;BME280;63511;49.346;8.798;2022-12-07T04:53:56;100272.34;;;7.09;78.51
61384;BME280;63511;49.346;8.798;2022-12-07T04:56:22;100261.97;;;7.26;77.79
61384;BME280;63511;49.346;8.798;2022-12-07T04:58:49;100261.94;;;7.36;77.04
61384;BME280;63511;49.346;8.798;2022-12-07T05:01:17;100256.69;;;7.33;77.27
61384;BME280;63511;49.346;8.798;2022-12-07T05:03:43;100259.31;;;7.35;77.04
61384;BME280;63511;49.346;8.798;2022-12-07T05:06:10;100259.34;;;7.24;78.11
61384;BME280;63511;49.346;8.798;2022-12-07T05:08:35;100255.78;;;6.91;78.34
61384;BME280;63511;49.346;8.798;2022-12-07T05:11:02;100263.78;;;7.07;77.76
61384;BME280;63511;49.346;8.798;2022-12-07T05:13:31;100255.75;;;7.11;78.05
61384;BME280;63511;49.346;8.798;2022-12-07T05:15:56;100255.34;;;7.16;78.19
61384;BME280;63511;49.346;8.798;2022-12-07T05:18:21;100257.50;;;7.12;77.71
61384;BME280;63511;49.346;8.798;2022-12-07T05:20:47;100256.88;;;7.14;77.80
61384;BME280;63511;49.346;8.798;2022-12-07T05:23:12;100268.31;;;7.01;78.02
61384;BME280;63511;49.346;8.798;2022-12-07T05:25:40;100269.69;;;7.07;77.85
61384;BME280;63511;49.346;8.798;2022-12-07T05:28:05;100263.56;;;7.04;78.14
61384;BME280;63511;49.346;8.798;2022-12-07T05:30:31;100269.00;;;6.88;78.03
61384;BME280;63511;49.346;8.798;2022-12-07T05:32:56;100274.22;;;7.01;77.82
61384;BME280;63511;49.346;8.798;2022-12-07T05:35:22;100281.03;;;6.92;77.30
61384;BME280;63511;49.346;8.798;2022-12-07T05:37:48;100271.69;;;7.11;77.64
61384;BME280;63511;49.346;8.798;2022-12-07T05:40:14;100276.59;;;7.20;76.77
61384;BME280;63511;49.346;8.798;2022-12-07T05:42:40;100277.88;;;7.37;76.82
61384;BME280;63511;49.346;8.798;2022-12-07T05:45:06;100280.47;;;7.48;76.18
61384;BME280;63511;49.346;8.798;2022-12-07T05:47:32;100272.53;;;7.22;75.51
61384;BME280;63511;49.346;8.798;2022-12-07T05:49:57;100277.75;;;7.45;75.98
61384;BME280;63511;49.346;8.798;2022-12-07T05:52:23;100267.75;;;7.57;75.30
61384;BME280;63511;49.346;8.798;2022-12-07T05:54:48;100263.47;;;7.66;74.80
61384;BME280;63511;49.346;8.798;2022-12-07T05:57:14;100262.56;;;7.65;75.72
61384;BME280;63511;49.346;8.798;2022-12-07T05:59:39;100267.41;;;7.74;74.71
61384;BME280;63511;49.346;8.798;2022-12-07T06:02:13;100266.94;;;7.68;75.17
61384;BME280;63511;49.346;8.798;2022-12-07T06:04:41;100272.41;;;7.52;73.91
61384;BME280;63511;49.346;8.798;2022-12-07T06:07:07;100273.06;;;7.50;74.06
61384;BME280;63511;49.346;8.798;2022-12-07T06:09:33;100267.41;;;7.52;75.08
61384;BME280;63511;49.346;8.798;2022-12-07T06:11:59;100273.47;;;7.44;74.90
61384;BME280;63511;49.346;8.798;2022-12-07T06:14:43;100267.81;;;7.68;74.23
61384;BME280;63511;49.346;8.798;2022-12-07T06:17:09;100265.44;;;7.70;74.71
61384;BME280;63511;49.346;8.798;2022-12-07T06:19:37;100274.06;;;7.74;73.75
61384;BME280;63511;49.346;8.798;2022-12-07T06:22:02;100272.84;;;7.68;74.39
61384;BME280;63511;49.346;8.798;2022-12-07T06:24:33;100276.84;;;7.77;74.69
61384;BME280;63511;49.346;8.798;2022-12-07T06:26:59;100273.44;;;7.76;74.35
61384;BME280;63511;49.346;8.798;2022-12-07T06:29:24;100282.63;;;7.76;74.62
61384;BME280;63511;49.346;8.798;2022-12-07T06:31:50;100276.72;;;7.75;74.56
61384;BME280;63511;49.346;8.798;2022-12-07T06:34:17;100286.84;;;7.87;75.01
61384;BME280;63511;49.346;8.798;2022-12-07T06:36:43;100284.84;;;7.83;75.18
61384;BME280;63511;49.346;8.798;2022-12-07T06:39:11;100283.09;;;7.82;74.92
61384;BME280;63511;49.346;8.798;2022-12-07T06:41:41;100286.19;;;7.89;75.30
61384;BME280;63511;49.346;8.798;2022-12-07T06:44:07;100288.78;;;8.01;74.20
61384;BME280;63511;49.346;8.798;2022-12-07T06:46:33;100287.41;;;7.73;75.21
61384;BME280;63511;49.346;8.798;2022-12-07T06:49:00;100288.47;;;7.64;75.95
61384;BME280;63511;49.346;8.798;2022-12-07T06:51:25;100285.09;;;7.86;75.46
61384;BME280;63511;49.346;8.798;2022-12-07T06:53:51;100282.16;;;7.69;75.30
61384;BME280;63511;49.346;8.798;2022-12-07T06:56:16;100280.06;;;7.86;75.67
61384;BME280;63511;49.346;8.798;2022-12-07T06:58:41;100282.72;;;7.55;75.35
61384;BME280;63511;49.346;8.798;2022-12-07T07:01:15;100290.22;;;7.65;75.57
61384;BME280;63511;49.346;8.798;2022-12-07T07:03:41;100295.72;;;7.72;74.71
61384;BME280;63511;49.346;8.798;2022-12-07T07:06:08;100290.84;;;7.63;75.80
61384;BME280;63511;49.346;8.798;2022-12-07T07:08:34;100294.94;;;7.73;75.05
61384;BME280;63511;49.346;8.798;2022-12-07T07:11:00;100289.38;;;7.87;74.18
61384;BME280;63511;49.346;8.798;2022-12-07T07:13:25;100286.38;;;7.81;74.57
61384;BME280;63511;49.346;8.798;2022-12-07T07:15:51;100287.00;;;8.00;74.35
61384;BME280;63511;49.346;8.798;2022-12-07T07:18:16;100285.16;;;7.97;74.44
61384;BME280;63511;49.346;8.798;2022-12-07T07:20:42;100290.94;;;7.96;74.58
61384;BME280;63511;49.346;8.798;2022-12-07T07:23:09;100292.09;;;7.90;74.34
61384;BME280;63511;49.346;8.798;2022-12-07T07:25:35;100296.72;;;7.95;74.69
61384;BME280;63511;49.346;8.798;2022-12-07T07:28:00;100300.94;;;8.06;75.17
61384;BME280;63511;49.346;8.798;2022-12-07T07:30:26;100300.94;;;8.06;74.40
61384;BME280;63511;49.346;8.798;2022-12-07T07:32:59;100295.78;;;8.05;74.13
61384;BME280;63511;49.346;8.798;2022-12-07T07:35:26;100288.16;;;8.15;74.22
61384;BME280;63511;49.346;8.798;2022-12-07T07:37:52;100303.31;;;8.05;73.88
61384;BME280;63511;49.346;8.798;2022-12-07T07:40:18;100290.41;;;8.22;73.37
61384;BME280;63511;49.346;8.798;2022-12-07T07:42:43;100295.56;;;8.02;74.50
61384;BME280;63511;49.346;8.798;2022-12-07T07:45:09;100294.28;;;8.07;74.17
61384;BME280;63511;49.346;8.798;2022-12-07T07:47:34;100297.06;;;8.22;73.37
61384;BME280;63511;49.346;8.798;2022-12-07T07:50:00;100300.59;;;8.02;73.52
61384;BME280;63511;49.346;8.798;2022-12-07T07:52:25;100302.97;;;8.22;73.22
61384;BME280;63511;49.346;8.798;2022-12-07T07:54:51;100302.56;;;8.28;73.70
61384;BME280;63511;49.346;8.798;2022-12-07T07:57:18;100306.09;;;8.30;73.33
61384;BME280;63511;49.346;8.798;2022-12-07T07:59:43;100308.47;;;8.28;73.22
61384;BME280;63511;49.346;8.798;2022-12-07T08:02:13;100312.28;;;8.01;73.02
61384;BME280;63511;49.346;8.798;2022-12-07T08:04:39;100319.94;;;8.03;73.76
61384;BME280;63511;49.346;8.798;2022-12-07T08:07:04;100323.81;;;8.31;73.05
61384;BME280;63511;49.346;8.798;2022-12-07T08:09:30;100314.22;;;8.37;73.50
61384;BME280;63511;49.346;8.798;2022-12-07T08:11:55;100315.97;;;8.17;73.65
61384;BME280;63511;49.346;8.798;2022-12-07T08:14:20;100318.94;;;8.23;73.79
61384;BME280;63511;49.346;8.798;2022-12-07T08:16:46;100318.88;;;7.89;73.95
61384;BME280;63511;49.346;8.798;2022-12-07T08:19:11;100320.66;;;8.12;73.36
61384;BME280;63511;49.346;8.798;2022-12-07T08:21:37;100317.19;;;8.00;73.81
61384;BME280;63511;49.346;8.798;2022-12-07T08:24:02;100322.41;;;8.13;73.72
61384;BME280;63511;49.346;8.798;2022-12-07T08:26:28;100317.19;;;8.43;73.58
61384;BME280;63511;49.346;8.798;2022-12-07T08:28:53;100320.19;;;8.49;72.20
61384;BME280;63511;49.346;8.798;2022-12-07T08:31:18;100315.53;;;8.77;71.71
61384;BME280;63511;49.346;8.798;2022-12-07T08:33:47;100316.19;;;8.20;72.32
61384;BME280;63511;49.346;8.798;2022-12-07T08:36:13;100315.56;;;8.00;73.08
61384;BME280;63511;49.346;8.798;2022-12-07T08:38:40;100321.44;;;7.47;74.63
61384;BME280;63511;49.346;8.798;2022-12-07T08:41:07;100318.19;;;8.02;74.79
61384;BME280;63511;49.346;8.798;2022-12-07T08:43:33;100325.78;;;8.35;73.62
61384;BME280;63511;49.346;8.798;2022-12-07T08:46:19;100320.25;;;8.29;73.84
61384;BME280;63511;49.346;8.798;2022-12-07T08:49:08;100324.66;;;8.10;73.89
61384;BME280;63511;49.346;8.798;2022-12-07T08:51:35;100321.06;;;8.28;73.87
61384;BME280;63511;49.346;8.798;2022-12-07T08:54:04;100322.72;;;8.61;72.41
61384;BME280;63511;49.346;8.798;2022-12-07T08:56:33;100320.72;;;8.02;72.98
61384;BME280;63511;49.346;8.798;2022-12-07T08:58:59;100320.81;;;8.03;73.69
61384;BME280;63511;49.346;8.798;2022-12-07T09:01:24;100316.94;;;8.40;73.15
61384;BME280;63511;49.346;8.798;2022-12-07T09:03:50;100319.38;;;8.39;72.91
61384;BME280;63511;49.346;8.798;2022-12-07T09:06:18;100326.31;;;8.09;73.43
61384;BME280;63511;49.346;8.798;2022-12-07T09:08:46;100323.13;;;8.44;72.67
61384;BME280;63511;49.346;8.798;2022-12-07T09:11:13;100324.72;;;8.22;74.52
61384;BME280;63511;49.346;8.798;2022-12-07T09:13:38;100329.19;;;8.36;72.60
61384;BME280;63511;49.346;8.798;2022-12-07T09:16:04;100321.50;;;8.56;72.86
61384;BME280;63511;49.346;8.798;2022-12-07T09:18:30;100328.50;;;8.60;72.96
61384;BME280;63511;49.346;8.798;2022-12-07T09:20:56;100332.84;;;8.51;72.44
61384;BME280;63511;49.346;8.798;2022-12-07T09:23:21;100333.25;;;8.67;71.88
61384;BME280;63511;49.346;8.798;2022-12-07T09:25:46;100330.97;;;8.70;72.31
61384;BME280;63511;49.346;8.798;2022-12-07T09:28:14;100321.78;;;8.82;71.71
61384;BME280;63511;49.346;8.798;2022-12-07T09:30:48;100324.44;;;8.07;73.94
61384;BME280;63511;49.346;8.798;2022-12-07T09:33:14;100332.22;;;8.53;72.49
61384;BME280;63511;49.346;8.798;2022-12-07T09:35:44;100328.59;;;8.28;73.76
61384;BME280;63511;49.346;8.798;2022-12-07T09:38:10;100325.06;;;8.70;72.59
61384;BME280;63511;49.346;8.798;2022-12-07T09:40:35;100321.94;;;8.07;73.23
61384;BME280;63511;49.346;8.798;2022-12-07T09:43:00;100323.47;;;8.48;73.03
61384;BME280;63511;49.346;8.798;2022-12-07T09:45:35;100321.34;;;8.88;71.33
61384;BME280;63511;49.346;8.798;2022-12-07T09:48:05;100323.28;;;8.69;71.61
61384;BME280;63511;49.346;8.798;2022-12-07T09:50:34;100315.28;;;8.63;72.11
61384;BME280;63511;49.346;8.798;2022-12-07T09:53:12;100317.63;;;8.83;70.99
61384;BME280;63511;49.346;8.798;2022-12-07T09:55:40;100320.22;;;8.73;70.62
61384;BME280;63511;49.346;8.798;2022-12-07T09:58:17;100314.28;;;8.61;72.14
61384;BME280;63511;49.346;8.798;2022-12-07T10:00:44;100312.94;;;8.99;71.86
61384;BME280;63511;49.346;8.798;2022-12-07T10:03:10;100317.03;;;8.30;72.21
61384;BME280;63511;49.346;8.798;2022-12-07T10:05:41;100315.31;;;8.41;73.48
61384;BME280;63511;49.346;8.798;2022-12-07T10:08:10;100315.22;;;8.29;73.56
61384;BME280;63511;49.346;8.798;2022-12-07T10:10:36;100313.91;;;8.89;73.01
61384;BME280;63511;49.346;8.798;2022-12-07T10:13:14;100302.44;;;9.16;71.56
61384;BME280;63511;49.346;8.798;2022-12-07T10:15:53;100302.88;;;8.99;71.13
61384;BME280;63511;49.346;8.798;2022-12-07T10:20:46;100298.38;;;9.42;69.97
61384;BME280;63511;49.346;8.798;2022-12-07T10:23:17;100300.09;;;9.54;70.11
61384;BME280;63511;49.346;8.798;2022-12-07T10:25:43;100299.59;;;9.58;69.37
61384;BME280;63511;49.346;8.798;2022-12-07T10:28:17;100299.25;;;8.95;69.47
61384;BME280;63511;49.346;8.798;2022-12-07T10:33:33;100292.47;;;9.06;70.94
61384;BME280;63511;49.346;8.798;2022-12-07T10:36:00;100285.16;;;9.32;71.02
61384;BME280;63511;49.346;8.798;2022-12-07T10:38:29;100291.06;;;8.53;71.65
61384;BME280;63511;49.346;8.798;2022-12-07T10:41:05;100281.84;;;9.10;71.09
61384;BME280;63511;49.346;8.798;2022-12-07T10:43:34;100283.59;;;9.34;69.95
61384;BME280;63511;49.346;8.798;2022-12-07T10:54:26;100273.28;;;8.40;71.52
61384;BME280;63511;49.346;8.798;2022-12-07T10:57:01;100280.97;;;9.21;71.04
61384;BME280;63511;49.346;8.798;2022-12-07T11:05:25;100260.66;;;9.91;68.42
61384;BME280;63511;49.346;8.798;2022-12-07T11:08:16;100264.75;;;9.89;67.93
61384;BME280;63511;49.346;8.798;2022-12-07T11:18:57;100250.38;;;9.52;68.74
61384;BME280;63511;49.346;8.798;2022-12-07T11:24:14;100247.44;;;9.82;68.61
61384;BME280;63511;49.346;8.798;2022-12-07T11:33:09;100233.16;;;9.94;67.63
61384;BME280;63511;49.346;8.798;2022-12-07T11:38:52;100229.63;;;9.92;68.48
61384;BME280;63511;49.346;8.798;2022-12-07T11:41:26;100234.19;;;9.25;68.72
61384;BME280;63511;49.346;8.798;2022-12-07T11:43:56;100223.06;;;9.58;69.04
61384;BME280;63511;49.346;8.798;2022-12-07T11:46:27;100223.13;;;9.71;68.27
61384;BME280;63511;49.346;8.798;2022-12-07T11:49:03;100222.78;;;9.30;68.37
61384;BME280;63511;49.346;8.798;2022-12-07T11:51:35;100221.03;;;9.17;70.06
61384;BME280;63511;49.346;8.798;2022-12-07T11:54:09;100223.69;;;9.07;70.76
61384;BME280;63511;49.346;8.798;2022-12-07T11:56:37;100217.06;;;9.44;69.51
61384;BME280;63511;49.346;8.798;2022-12-07T11:59:09;100218.41;;;9.27;69.53
61384;BME280;63511;49.346;8.798;2022-12-07T12:02:01;100206.22;;;9.81;68.03
61384;BME280;63511;49.346;8.798;2022-12-07T12:07:34;100200.44;;;9.96;67.09
61384;BME280;63511;49.346;8.798;2022-12-07T12:10:13;100202.84;;;9.33;68.93
61384;BME280;63511;49.346;8.798;2022-12-07T12:18:42;100193.91;;;9.61;68.04
61384;BME280;63511;49.346;8.798;2022-12-07T12:21:15;100194.78;;;9.62;68.20
61384;BME280;63511;49.346;8.798;2022-12-07T12:23:45;100189.44;;;9.46;68.37
61384;BME280;63511;49.346;8.798;2022-12-07T12:26:33;100187.78;;;9.58;68.75
61384;BME280;63511;49.346;8.798;2022-12-07T12:29:05;100186.44;;;9.26;68.45
61384;BME280;63511;49.346;8.798;2022-12-07T12:31:36;100186.44;;;9.15;68.87
61384;BME280;63511;49.346;8.798;2022-12-07T12:34:29;100186.97;;;9.22;69.30
61384;BME280;63511;49.346;8.798;2022-12-07T12:36:50;100183.38;;;9.07;69.50
61384;BME280;63511;49.346;8.798;2022-12-07T12:39:17;100179.66;;;9.02;69.09
61384;BME280;63511;49.346;8.798;2022-12-07T12:46:54;100174.03;;;9.66;68.31
61384;BME280;63511;49.346;8.798;2022-12-07T13:01:48;100163.59;;;9.98;67.52
61384;BME280;63511;49.346;8.798;2022-12-07T13:04:24;100158.81;;;9.89;67.15
61384;BME280;63511;49.346;8.798;2022-12-07T13:06:55;100153.22;;;10.06;66.98
61384;BME280;63511;49.346;8.798;2022-12-07T13:09:26;100162.41;;;9.68;67.34
61384;BME280;63511;49.346;8.798;2022-12-07T13:12:02;100158.13;;;9.42;67.71
61384;BME280;63511;49.346;8.798;2022-12-07T13:17:07;100158.06;;;9.17;68.13
61384;BME280;63511;49.346;8.798;2022-12-07T13:27:39;100142.25;;;9.68;66.24
61384;BME280;63511;49.346;8.798;2022-12-07T13:30:19;100136.63;;;9.47;67.87
61384;BME280;63511;49.346;8.798;2022-12-07T13:32:55;100132.63;;;9.62;67.12
61384;BME280;63511;49.346;8.798;2022-12-07T13:35:37;100130.56;;;9.81;66.69
61384;BME280;63511;49.346;8.798;2022-12-07T13:38:25;100126.34;;;9.94;66.84
61384;BME280;63511;49.346;8.798;2022-12-07T13:41:15;100130.38;;;9.78;68.38
61384;BME280;63511;49.346;8.798;2022-12-07T13:44:02;100124.63;;;9.81;66.95
61384;BME280;63511;49.346;8.798;2022-12-07T13:49:27;100132.81;;;9.65;67.66
61384;BME280;63511;49.346;8.798;2022-12-07T13:51:53;100124.22;;;9.75;68.15
61384;BME280;63511;49.346;8.798;2022-12-07T13:54:20;100126.19;;;9.79;67.33
61384;BME280;63511;49.346;8.798;2022-12-07T13:56:49;100126.81;;;9.88;66.93
61384;BME280;63511;49.346;8.798;2022-12-07T13:59:23;100122.53;;;9.87;66.66
61384;BME280;63511;49.346;8.798;2022-12-07T14:01:53;100123.88;;;9.82;66.84
61384;BME280;63511;49.346;8.798;2022-12-07T14:07:00;100124.91;;;9.72;66.91
61384;BME280;63511;49.346;8.798;2022-12-07T14:09:28;100120.56;;;9.83;66.54
61384;BME280;63511;49.346;8.798;2022-12-07T14:11:56;100120.28;;;9.78;66.83
61384;BME280;63511;49.346;8.798;2022-12-07T14:14:26;100119.13;;;9.87;67.02
61384;BME280;63511;49.346;8.798;2022-12-07T14:17:15;100119.13;;;9.87;67.09
61384;BME280;63511;49.346;8.798;2022-12-07T14:19:48;100121.84;;;9.90;66.77
61384;BME280;63511;49.346;8.798;2022-12-07T14:22:27;100128.31;;;9.73;67.92
61384;BME280;63511;49.346;8.798;2022-12-07T14:25:16;100133.25;;;9.71;67.43
61384;BME280;63511;49.346;8.798;2022-12-07T14:30:19;100126.25;;;9.67;67.72
61384;BME280;63511;49.346;8.798;2022-12-07T14:32:45;100123.81;;;9.69;67.17
61384;BME280;63511;49.346;8.798;2022-12-07T14:35:15;100124.03;;;9.72;67.14
61384;BME280;63511;49.346;8.798;2022-12-07T14:37:42;100118.09;;;9.71;67.72
61384;BME280;63511;49.346;8.798;2022-12-07T14:40:29;100118.69;;;9.67;67.27
61384;BME280;63511;49.346;8.798;2022-12-07T14:43:04;100116.81;;;9.65;67.09
61384;BME280;63511;49.346;8.798;2022-12-07T14:45:30;100110.69;;;9.12;68.68
61384;BME280;63511;49.346;8.798;2022-12-07T14:47:55;100114.75;;;9.34;68.11
61384;BME280;63511;49.346;8.798;2022-12-07T14:50:23;100116.66;;;9.50;68.57
61384;BME280;63511;49.346;8.798;2022-12-07T14:52:55;100122.28;;;8.98;69.44
61384;BME280;63511;49.346;8.798;2022-12-07T14:55:27;100118.41;;;9.26;69.32
61384;BME280;63511;49.346;8.798;2022-12-07T14:57:56;100119.88;;;9.11;69.26
61384;BME280;63511;49.346;8.798;2022-12-07T15:00:26;100119.28;;;9.27;69.10
61384;BME280;63511;49.346;8.798;2022-12-07T15:02:52;100118.47;;;9.39;68.74
61384;BME280;63511;49.346;8.798;2022-12-07T15:05:22;100120.63;;;9.47;68.09
61384;BME280;63511;49.346;8.798;2022-12-07T15:07:49;100109.25;;;9.40;68.42
61384;BME280;63511;49.346;8.798;2022-12-07T15:10:22;100117.88;;;9.07;68.49
61384;BME280;63511;49.346;8.798;2022-12-07T15:12:54;100114.28;;;9.40;68.38
61384;BME280;63511;49.346;8.798;2022-12-07T15:15:19;100108.41;;;9.28;68.52
61384;BME280;63511;49.346;8.798;2022-12-07T15:17:49;100117.56;;;9.39;68.82